createdAt,value
2017-06-25T00:00:57.191Z,15.10
2017-06-25T00:03:24.287Z,15.10
2017-06-25T00:05:51.426Z,15.10
2017-06-25T00:08:17.887Z,15.10
2017-06-25T00:10:44.376Z,15.00
2017-06-25T00:13:10.802Z,15.10
2017-06-25T00:15:37.219Z,15.00
2017-06-25T00:18:03.680Z,15.00
2017-06-25T00:20:30.124Z,15.00
2017-06-25T00:22:56.576Z,15.00
2017-06-25T00:25:23.114Z,15.00
2017-06-25T00:27:49.676Z,14.90
2017-06-25T00:30:16.311Z,14.90
2017-06-25T00:32:43.712Z,14.90
2017-06-25T00:35:10.274Z,14.90
2017-06-25T00:37:36.932Z,14.90
2017-06-25T00:40:03.494Z,14.90
2017-06-25T00:42:30.152Z,14.90
2017-06-25T00:44:56.659Z,14.90
2017-06-25T00:47:23.271Z,14.90
2017-06-25T00:49:49.827Z,14.80
2017-06-25T00:52:16.419Z,14.80
2017-06-25T00:54:43.045Z,14.80
2017-06-25T00:57:09.477Z,14.80
2017-06-25T00:59:36.635Z,14.70
2017-06-25T01:02:03.231Z,14.70
2017-06-25T01:04:29.789Z,14.70
2017-06-25T01:06:56.256Z,14.70
2017-06-25T01:09:23.538Z,14.60
2017-06-25T01:11:50.502Z,14.60
2017-06-25T01:14:17.044Z,14.50
2017-06-25T01:16:43.504Z,14.50
2017-06-25T01:19:09.962Z,14.50
2017-06-25T01:21:36.412Z,14.40
2017-06-25T01:24:02.974Z,14.40
2017-06-25T01:26:29.405Z,14.40
2017-06-25T01:28:55.986Z,14.40
2017-06-25T01:31:22.546Z,14.30
2017-06-25T01:33:49.058Z,14.30
2017-06-25T01:36:15.559Z,14.30
2017-06-25T01:38:42.119Z,14.30
2017-06-25T01:41:08.642Z,14.30
2017-06-25T01:43:35.077Z,14.20
2017-06-25T01:46:01.809Z,14.20
2017-06-25T01:48:28.311Z,14.20
2017-06-25T01:50:54.789Z,14.20
2017-06-25T01:53:22.084Z,14.20
2017-06-25T01:55:48.613Z,14.20
2017-06-25T01:58:15.096Z,14.30
2017-06-25T02:00:42.304Z,14.20
2017-06-25T02:03:08.828Z,14.20
2017-06-25T02:05:35.388Z,14.20
2017-06-25T02:08:01.842Z,14.30
2017-06-25T02:10:28.368Z,14.20
2017-06-25T02:12:54.870Z,14.20
2017-06-25T02:15:21.416Z,14.20
2017-06-25T02:17:47.976Z,14.30
2017-06-25T02:20:14.480Z,14.30
2017-06-25T02:22:41.472Z,14.20
2017-06-25T02:25:08.146Z,14.30
2017-06-25T02:27:35.350Z,14.20
2017-06-25T02:30:01.894Z,14.20
2017-06-25T02:32:28.330Z,14.20
2017-06-25T02:34:55.725Z,14.20
2017-06-25T02:37:22.175Z,14.20
2017-06-25T02:39:49.455Z,14.20
2017-06-25T02:42:16.016Z,14.20
2017-06-25T02:44:42.550Z,14.20
2017-06-25T02:47:09.831Z,14.10
2017-06-25T02:49:37.025Z,14.10
2017-06-25T02:52:03.444Z,14.10
2017-06-25T02:54:29.888Z,14.10
2017-06-25T02:56:56.308Z,14.20
2017-06-25T02:59:22.844Z,14.20
2017-06-25T03:01:49.280Z,14.20
2017-06-25T03:04:16.474Z,14.20
2017-06-25T03:06:42.882Z,14.20
2017-06-25T03:09:21.666Z,14.30
2017-06-25T03:11:48.175Z,14.30
2017-06-25T03:14:14.636Z,14.30
2017-06-25T03:16:41.044Z,14.40
2017-06-25T03:19:07.484Z,14.40
2017-06-25T03:21:33.892Z,14.40
2017-06-25T03:24:00.331Z,14.50
2017-06-25T03:26:27.497Z,14.60
2017-06-25T03:28:53.961Z,14.60
2017-06-25T03:31:20.385Z,14.70
2017-06-25T03:33:46.845Z,14.70
2017-06-25T03:36:13.289Z,14.70
2017-06-25T03:38:39.721Z,14.80
2017-06-25T03:41:06.714Z,14.80
2017-06-25T03:43:33.158Z,14.80
2017-06-25T03:46:00.358Z,14.90
2017-06-25T03:48:26.914Z,14.80
2017-06-25T03:50:53.360Z,14.90
2017-06-25T03:53:19.778Z,14.90
2017-06-25T03:55:46.220Z,15.00
2017-06-25T03:58:12.658Z,15.40
2017-06-25T04:00:39.080Z,15.80
2017-06-25T04:03:05.585Z,16.40
2017-06-25T04:05:32.153Z,17.00
2017-06-25T04:07:58.621Z,17.80
2017-06-25T04:10:25.080Z,18.50
2017-06-25T04:12:51.677Z,19.40
2017-06-25T04:15:18.109Z,20.30
2017-06-25T04:17:45.277Z,22.00
2017-06-25T04:20:12.569Z,22.70
2017-06-25T04:22:39.633Z,22.70
2017-06-25T04:25:06.793Z,24.10
2017-06-25T04:27:34.087Z,24.70
2017-06-25T04:30:00.515Z,24.60
2017-06-25T04:32:26.938Z,25.30
2017-06-25T04:34:53.454Z,25.90
2017-06-25T04:37:19.868Z,26.40
2017-06-25T04:39:46.468Z,26.80
2017-06-25T04:42:12.880Z,27.30
2017-06-25T04:44:39.384Z,27.80
2017-06-25T04:47:05.816Z,28.30
2017-06-25T04:49:32.976Z,29.00
2017-06-25T04:51:59.415Z,29.00
2017-06-25T04:54:25.846Z,29.40
2017-06-25T04:56:52.276Z,29.80
2017-06-25T04:59:18.710Z,30.20
2017-06-25T05:01:45.916Z,30.90
2017-06-25T05:04:13.091Z,30.80
2017-06-25T05:06:39.635Z,31.20
2017-06-25T05:09:06.103Z,31.60
2017-06-25T05:11:32.541Z,32.10
2017-06-25T05:13:59.982Z,32.20
2017-06-25T05:16:26.485Z,32.20
2017-06-25T05:18:52.927Z,32.20
2017-06-25T05:21:20.105Z,31.20
2017-06-25T05:23:47.289Z,30.80
2017-06-25T05:26:13.725Z,30.80
2017-06-25T05:28:41.014Z,30.30
2017-06-25T05:31:08.211Z,30.40
2017-06-25T05:33:34.647Z,30.40
2017-06-25T05:36:01.155Z,30.70
2017-06-25T05:38:27.598Z,31.00
2017-06-25T05:40:54.022Z,31.40
2017-06-25T05:43:20.468Z,32.00
2017-06-25T05:45:46.902Z,32.50
2017-06-25T05:48:13.382Z,32.80
2017-06-25T05:50:39.791Z,33.00
2017-06-25T05:53:06.294Z,33.00
2017-06-25T05:55:32.727Z,33.10
2017-06-25T05:57:59.914Z,33.50
2017-06-25T06:00:27.109Z,33.70
2017-06-25T06:02:53.650Z,33.70
2017-06-25T06:05:20.110Z,33.90
2017-06-25T06:07:46.585Z,34.10
2017-06-25T06:10:13.122Z,34.50
2017-06-25T06:12:39.681Z,34.90
2017-06-25T06:15:07.058Z,35.20
2017-06-25T06:17:33.615Z,35.10
2017-06-25T06:20:00.078Z,35.40
2017-06-25T06:22:26.975Z,35.80
2017-06-25T06:24:54.627Z,36.40
2017-06-25T06:27:21.141Z,37.00
2017-06-25T06:29:47.624Z,37.60
2017-06-25T06:32:15.522Z,37.30
2017-06-25T06:34:42.184Z,37.30
2017-06-25T06:37:08.729Z,36.60
2017-06-25T06:39:36.016Z,35.20
2017-06-25T06:42:02.562Z,35.20
2017-06-25T06:44:29.850Z,34.20
2017-06-25T06:46:56.322Z,34.10
2017-06-25T06:49:22.864Z,33.60
2017-06-25T06:52:04.246Z,33.20
2017-06-25T06:54:32.468Z,31.40
2017-06-25T06:56:59.007Z,31.30
2017-06-25T06:59:25.463Z,31.40
2017-06-25T07:01:51.913Z,31.30
2017-06-25T07:04:19.193Z,31.30
2017-06-25T07:06:46.145Z,31.30
2017-06-25T07:09:13.331Z,31.70
2017-06-25T07:11:40.389Z,31.70
2017-06-25T07:14:08.188Z,30.90
2017-06-25T07:16:34.641Z,30.90
2017-06-25T07:19:02.041Z,30.70
2017-06-25T07:21:28.478Z,30.70
2017-06-25T07:23:55.094Z,30.90
2017-06-25T07:26:21.596Z,31.30
2017-06-25T07:28:49.016Z,31.40
2017-06-25T07:31:15.467Z,31.40
2017-06-25T07:33:41.916Z,31.00
2017-06-25T07:36:08.658Z,30.70
2017-06-25T07:38:35.734Z,30.60
2017-06-25T07:41:02.176Z,31.20
2017-06-25T07:43:28.629Z,32.30
2017-06-25T07:45:55.092Z,32.80
2017-06-25T07:48:21.521Z,32.90
2017-06-25T07:50:48.805Z,32.90
2017-06-25T07:53:16.005Z,33.20
2017-06-25T07:55:42.473Z,33.20
2017-06-25T07:58:08.922Z,33.20
2017-06-25T08:00:35.367Z,34.00
2017-06-25T08:03:01.915Z,34.60
2017-06-25T08:05:28.424Z,34.90
2017-06-25T08:07:54.928Z,35.10
2017-06-25T08:10:21.374Z,35.40
2017-06-25T08:12:47.951Z,35.00
2017-06-25T08:15:14.353Z,34.90
2017-06-25T08:17:40.828Z,34.90
2017-06-25T08:20:07.272Z,34.40
2017-06-25T08:22:33.713Z,33.60
2017-06-25T08:25:00.188Z,32.30
2017-06-25T08:27:26.662Z,31.20
2017-06-25T08:29:53.898Z,29.50
2017-06-25T08:32:20.414Z,29.50
2017-06-25T08:34:46.870Z,28.90
2017-06-25T08:37:13.320Z,28.40
2017-06-25T08:39:40.513Z,27.60
2017-06-25T08:42:07.058Z,27.60
2017-06-25T08:44:33.619Z,27.40
2017-06-25T08:47:00.119Z,27.20
2017-06-25T08:49:26.567Z,27.10
2017-06-25T08:51:53.023Z,27.00
2017-06-25T08:54:19.473Z,26.90
2017-06-25T08:56:45.972Z,27.00
2017-06-25T08:59:13.273Z,27.00
2017-06-25T09:01:39.934Z,27.00
2017-06-25T09:04:06.418Z,26.90
2017-06-25T09:06:32.947Z,26.70
2017-06-25T09:08:59.378Z,26.60
2017-06-25T09:11:25.814Z,26.50
2017-06-25T09:13:52.294Z,26.40
2017-06-25T09:16:19.484Z,26.20
2017-06-25T09:18:46.707Z,26.20
2017-06-25T09:21:13.218Z,26.20
2017-06-25T09:23:39.659Z,26.40
2017-06-25T09:26:06.950Z,26.40
2017-06-25T09:28:33.404Z,26.30
2017-06-25T09:30:59.964Z,26.10
2017-06-25T09:33:26.423Z,26.00
2017-06-25T09:35:52.982Z,25.90
2017-06-25T09:38:19.415Z,25.90
2017-06-25T09:40:46.621Z,25.90
2017-06-25T09:43:13.232Z,25.90
2017-06-25T09:45:39.829Z,25.90
2017-06-25T09:48:06.387Z,26.00
2017-06-25T09:50:33.151Z,25.90
2017-06-25T09:52:59.712Z,25.80
2017-06-25T09:55:26.371Z,25.90
2017-06-25T09:57:52.808Z,26.00
2017-06-25T10:00:20.096Z,26.30
2017-06-25T10:02:46.532Z,26.30
2017-06-25T10:05:13.712Z,26.40
2017-06-25T10:07:40.950Z,26.40
2017-06-25T10:10:07.400Z,26.40
2017-06-25T10:12:33.860Z,26.40
2017-06-25T10:15:00.586Z,26.50
2017-06-25T10:17:27.358Z,26.60
2017-06-25T10:19:53.836Z,26.70
2017-06-25T10:22:20.283Z,26.80
2017-06-25T10:24:46.746Z,26.70
2017-06-25T10:27:13.179Z,26.40
2017-06-25T10:29:39.675Z,26.20
2017-06-25T10:32:06.176Z,26.10
2017-06-25T10:34:32.619Z,26.10
2017-06-25T10:36:59.787Z,26.40
2017-06-25T10:39:27.079Z,26.60
2017-06-25T10:41:53.531Z,26.60
2017-06-25T10:44:21.248Z,26.60
2017-06-25T10:46:47.989Z,26.60
2017-06-25T10:49:14.462Z,26.60
2017-06-25T10:51:40.915Z,26.60
2017-06-25T10:54:07.452Z,26.60
2017-06-25T10:56:33.926Z,26.70
2017-06-25T10:59:00.467Z,26.80
2017-06-25T11:01:26.972Z,27.00
2017-06-25T11:03:53.500Z,27.00
2017-06-25T11:06:20.110Z,26.90
2017-06-25T11:08:46.648Z,26.80
2017-06-25T11:11:13.364Z,26.80
2017-06-25T11:13:40.432Z,26.80
2017-06-25T11:16:21.924Z,26.70
2017-06-25T11:18:48.392Z,26.40
2017-06-25T11:21:29.874Z,26.30
2017-06-25T11:23:56.590Z,26.30
2017-06-25T11:26:23.086Z,26.40
2017-06-25T11:28:49.561Z,26.50
2017-06-25T11:31:16.178Z,26.40
2017-06-25T11:33:42.658Z,26.70
2017-06-25T11:36:10.039Z,27.10
2017-06-25T11:38:36.565Z,27.10
2017-06-25T11:41:03.155Z,27.10
2017-06-25T11:43:31.867Z,27.00
2017-06-25T11:45:58.337Z,26.80
2017-06-25T11:48:24.803Z,26.70
2017-06-25T11:50:51.287Z,26.80
2017-06-25T11:53:17.768Z,26.90
2017-06-25T11:55:44.961Z,27.20
2017-06-25T11:58:11.494Z,27.20
2017-06-25T12:00:37.964Z,27.20
2017-06-25T12:03:05.149Z,27.00
2017-06-25T12:05:31.651Z,27.00
2017-06-25T12:07:58.136Z,27.00
2017-06-25T12:10:24.822Z,27.10
2017-06-25T12:12:51.358Z,27.20
2017-06-25T12:15:17.824Z,27.00
2017-06-25T12:17:45.030Z,26.90
2017-06-25T12:20:11.991Z,26.80
2017-06-25T12:22:38.407Z,26.80
2017-06-25T12:25:05.052Z,26.70
2017-06-25T12:27:31.608Z,26.50
2017-06-25T12:29:58.109Z,26.30
2017-06-25T12:32:24.553Z,26.20
2017-06-25T12:34:51.839Z,26.20
2017-06-25T12:37:18.295Z,26.20
2017-06-25T12:39:44.853Z,26.20
2017-06-25T12:42:11.419Z,26.40
2017-06-25T12:44:37.887Z,26.60
2017-06-25T12:47:04.550Z,26.60
2017-06-25T12:49:31.395Z,26.60
2017-06-25T12:51:57.881Z,26.60
2017-06-25T12:54:24.326Z,26.50
2017-06-25T12:56:50.813Z,26.40
2017-06-25T12:59:17.260Z,26.40
2017-06-25T13:01:43.737Z,26.30
2017-06-25T13:04:10.272Z,26.50
2017-06-25T13:06:36.741Z,26.60
2017-06-25T13:09:03.358Z,26.50
2017-06-25T13:11:33.774Z,26.40
2017-06-25T13:14:00.950Z,26.40
2017-06-25T13:16:29.270Z,26.40
2017-06-25T13:18:55.956Z,26.40
2017-06-25T13:21:22.485Z,26.30
2017-06-25T13:23:49.011Z,26.20
2017-06-25T13:26:15.451Z,26.20
2017-06-25T13:28:41.893Z,26.30
2017-06-25T13:31:08.342Z,26.40
2017-06-25T13:33:34.805Z,26.40
2017-06-25T13:36:01.733Z,26.40
2017-06-25T13:38:28.169Z,26.30
2017-06-25T13:40:55.465Z,26.30
2017-06-25T13:43:21.901Z,26.30
2017-06-25T13:45:49.079Z,26.20
2017-06-25T13:48:16.580Z,26.00
2017-06-25T13:50:43.128Z,26.00
2017-06-25T13:53:09.623Z,25.90
2017-06-25T13:55:36.078Z,25.70
2017-06-25T13:58:02.542Z,25.60
2017-06-25T14:00:28.993Z,25.50
2017-06-25T14:02:55.460Z,25.40
2017-06-25T14:05:21.872Z,25.40
2017-06-25T14:07:48.304Z,25.30
2017-06-25T14:10:15.716Z,25.20
2017-06-25T14:12:42.360Z,25.20
2017-06-25T14:15:08.922Z,25.40
2017-06-25T14:17:35.586Z,25.50
2017-06-25T14:20:02.853Z,25.70
2017-06-25T14:22:29.624Z,25.80
2017-06-25T14:24:56.283Z,25.90
2017-06-25T14:27:23.043Z,26.00
2017-06-25T14:29:49.716Z,26.10
2017-06-25T14:32:16.262Z,26.00
2017-06-25T14:34:42.923Z,25.90
2017-06-25T14:37:09.487Z,25.80
2017-06-25T14:39:36.145Z,25.80
2017-06-25T14:42:02.802Z,25.70
2017-06-25T14:44:29.360Z,25.70
2017-06-25T14:46:56.495Z,25.70
2017-06-25T14:49:23.097Z,25.50
2017-06-25T14:51:50.370Z,25.40
2017-06-25T14:54:16.838Z,25.20
2017-06-25T14:56:43.278Z,25.10
2017-06-25T14:59:09.834Z,25.20
2017-06-25T15:01:36.300Z,25.40
2017-06-25T15:04:02.849Z,25.60
2017-06-25T15:06:29.359Z,25.60
2017-06-25T15:08:55.865Z,25.40
2017-06-25T15:11:22.538Z,25.40
2017-06-25T15:13:49.053Z,25.30
2017-06-25T15:16:15.846Z,25.30
2017-06-25T15:18:43.577Z,25.30
2017-06-25T15:21:10.193Z,25.50
2017-06-25T15:23:36.762Z,25.70
2017-06-25T15:26:03.866Z,25.70
2017-06-25T15:28:32.015Z,25.50
2017-06-25T15:30:59.062Z,25.50
2017-06-25T15:33:26.769Z,25.60
2017-06-25T15:35:53.593Z,25.70
2017-06-25T15:38:20.397Z,25.50
2017-06-25T15:40:46.954Z,25.40
2017-06-25T15:43:13.524Z,25.20
2017-06-25T15:45:40.044Z,25.10
2017-06-25T15:48:06.617Z,25.00
2017-06-25T15:50:33.728Z,24.80
2017-06-25T15:53:00.872Z,24.70
2017-06-25T15:55:28.504Z,24.30
2017-06-25T15:57:56.036Z,24.20
2017-06-25T16:00:23.002Z,24.10
2017-06-25T16:02:50.626Z,24.00
2017-06-25T16:05:18.314Z,23.90
2017-06-25T16:07:44.905Z,23.90
2017-06-25T16:10:11.414Z,23.90
2017-06-25T16:15:09.791Z,23.70
2017-06-25T16:17:36.377Z,23.70
2017-06-25T16:20:02.937Z,23.70
2017-06-25T16:22:29.329Z,23.60
2017-06-25T16:24:55.785Z,23.60
2017-06-25T16:27:22.374Z,23.50
2017-06-25T16:29:48.973Z,23.30
2017-06-25T16:32:16.050Z,23.20
2017-06-25T16:34:42.611Z,23.20
2017-06-25T16:37:09.536Z,23.10
2017-06-25T16:39:36.034Z,23.10
2017-06-25T16:42:02.636Z,23.00
2017-06-25T16:44:29.840Z,22.90
2017-06-25T16:46:57.534Z,22.90
2017-06-25T16:49:24.043Z,22.90
2017-06-25T16:51:50.872Z,22.80
2017-06-25T16:54:17.750Z,22.70
2017-06-25T16:56:44.227Z,22.70
2017-06-25T16:59:10.978Z,22.60
2017-06-25T17:01:37.704Z,22.50
2017-06-25T17:04:04.434Z,22.50
2017-06-25T17:06:31.454Z,22.40
2017-06-25T17:08:58.093Z,22.40
2017-06-25T17:11:24.570Z,22.40
2017-06-25T17:13:51.323Z,22.30
2017-06-25T17:16:18.215Z,22.20
2017-06-25T17:18:45.537Z,22.20
2017-06-25T17:21:13.134Z,22.10
2017-06-25T17:23:40.722Z,22.10
2017-06-25T17:26:07.274Z,22.10
2017-06-25T17:28:34.528Z,22.00
2017-06-25T17:31:01.352Z,22.00
2017-06-25T17:33:27.816Z,21.90
2017-06-25T17:35:54.248Z,21.80
2017-06-25T17:38:20.686Z,21.70
2017-06-25T17:40:47.190Z,21.60
2017-06-25T17:43:13.678Z,21.50
2017-06-25T17:45:40.917Z,21.50
2017-06-25T17:48:07.734Z,21.40
2017-06-25T17:50:34.228Z,21.40
2017-06-25T17:53:01.361Z,21.30
2017-06-25T17:55:28.413Z,21.30
2017-06-25T17:57:56.579Z,21.30
2017-06-25T18:00:23.187Z,21.30
2017-06-25T18:02:49.861Z,21.30
2017-06-25T18:05:16.501Z,21.30
2017-06-25T18:07:43.876Z,21.30
2017-06-25T18:10:11.468Z,21.20
2017-06-25T18:12:38.335Z,21.20
2017-06-25T18:15:04.968Z,21.20
2017-06-25T18:17:38.499Z,21.20
2017-06-25T18:20:05.275Z,21.10
2017-06-25T18:22:32.855Z,21.00
2017-06-25T18:25:00.118Z,20.90
2017-06-25T18:27:26.607Z,20.90
2017-06-25T18:29:53.068Z,20.90
2017-06-25T18:32:20.614Z,20.80
2017-06-25T18:34:47.794Z,20.80
2017-06-25T18:37:14.516Z,20.70
2017-06-25T18:39:41.008Z,20.60
2017-06-25T18:42:08.486Z,20.50
2017-06-25T18:44:35.046Z,20.50
2017-06-25T18:47:01.590Z,20.50
2017-06-25T18:49:28.880Z,20.40
2017-06-25T18:51:56.155Z,20.30
2017-06-25T18:54:24.053Z,20.30
2017-06-25T18:56:50.805Z,20.30
2017-06-25T18:59:17.708Z,20.30
2017-06-25T19:01:44.475Z,20.20
2017-06-25T19:04:10.989Z,20.20
2017-06-25T19:06:37.553Z,20.20
2017-06-25T19:09:04.745Z,20.10
2017-06-25T19:11:31.485Z,20.10
2017-06-25T19:13:58.177Z,20.10
2017-06-25T19:16:24.819Z,20.10
2017-06-25T19:18:51.568Z,20.10
2017-06-25T19:21:18.229Z,20.00
2017-06-25T19:23:45.018Z,20.00
2017-06-25T19:26:12.128Z,20.00
2017-06-25T19:28:38.726Z,20.00
2017-06-25T19:31:05.164Z,20.00
2017-06-25T19:33:31.684Z,20.00
2017-06-25T19:35:59.120Z,20.00
2017-06-25T19:38:25.595Z,20.00
2017-06-25T19:40:52.048Z,19.90
2017-06-25T19:43:18.512Z,19.90
2017-06-25T19:45:45.258Z,19.90
2017-06-25T19:48:11.716Z,19.90
2017-06-25T19:50:38.191Z,19.80
2017-06-25T19:53:04.715Z,19.80
2017-06-25T19:55:31.276Z,19.80
2017-06-25T19:57:57.717Z,19.80
2017-06-25T20:00:25.540Z,19.80
2017-06-25T20:02:52.012Z,19.80
2017-06-25T20:05:18.489Z,19.80
2017-06-25T20:07:44.973Z,19.80
2017-06-25T20:10:12.204Z,19.80
2017-06-25T20:12:38.719Z,19.80
2017-06-25T20:15:05.189Z,19.80
2017-06-25T20:17:31.666Z,19.80
2017-06-25T20:19:58.188Z,19.80
2017-06-25T20:22:24.662Z,19.70
2017-06-25T20:24:51.125Z,19.70
2017-06-25T20:27:17.701Z,19.70
2017-06-25T20:29:44.529Z,19.70
2017-06-25T20:32:10.996Z,19.60
2017-06-25T20:34:37.541Z,19.60
2017-06-25T20:37:04.304Z,19.50
2017-06-25T20:39:30.865Z,19.50
2017-06-25T20:41:57.317Z,19.40
2017-06-25T20:44:23.786Z,19.20
2017-06-25T20:46:50.210Z,19.20
2017-06-25T20:49:17.461Z,19.00
2017-06-25T20:51:43.939Z,19.00
2017-06-25T20:54:10.397Z,19.00
2017-06-25T20:56:37.999Z,18.90
2017-06-25T20:59:05.355Z,18.90
2017-06-25T21:01:32.549Z,18.90
2017-06-25T21:03:59.207Z,18.90
2017-06-25T21:06:25.728Z,18.90
2017-06-25T21:08:52.204Z,18.80
2017-06-25T21:11:19.496Z,18.80
2017-06-25T21:13:45.972Z,18.80
2017-06-25T21:16:12.511Z,18.80
2017-06-25T21:18:39.008Z,18.70
2017-06-25T21:21:05.526Z,18.70
2017-06-25T21:23:32.023Z,18.70
2017-06-25T21:25:58.473Z,18.70
2017-06-25T21:28:25.025Z,18.70
2017-06-25T21:30:51.771Z,18.70
2017-06-25T21:33:18.326Z,18.70
2017-06-25T21:35:44.739Z,18.70
2017-06-25T21:38:11.176Z,18.70
2017-06-25T21:40:37.609Z,18.60
2017-06-25T21:43:04.143Z,18.60
2017-06-25T21:45:30.587Z,18.60
2017-06-25T21:47:57.801Z,18.60
2017-06-25T21:50:24.331Z,18.50
2017-06-25T21:52:50.765Z,18.50
2017-06-25T21:55:17.945Z,18.50
2017-06-25T21:57:45.147Z,18.40
2017-06-25T22:00:11.790Z,18.40
2017-06-25T22:02:39.031Z,18.40
2017-06-25T22:05:05.510Z,18.40
2017-06-25T22:07:32.797Z,18.40
2017-06-25T22:09:59.220Z,18.40
2017-06-25T22:12:25.708Z,18.40
2017-06-25T22:14:52.616Z,18.40
2017-06-25T22:17:19.036Z,18.40
2017-06-25T22:19:45.482Z,18.40
2017-06-25T22:22:12.662Z,18.50
2017-06-25T22:24:39.113Z,18.40
2017-06-25T22:27:05.673Z,18.50
2017-06-25T22:29:32.131Z,18.50
2017-06-25T22:31:58.605Z,18.50
2017-06-25T22:34:25.245Z,18.50
2017-06-25T22:36:51.659Z,18.40
2017-06-25T22:39:18.735Z,18.40
2017-06-25T22:41:45.167Z,18.40
2017-06-25T22:44:11.611Z,18.40
2017-06-25T22:46:38.141Z,18.40
2017-06-25T22:49:04.581Z,18.40
2017-06-25T22:51:31.748Z,18.40
2017-06-25T22:53:58.893Z,18.40
2017-06-25T22:56:25.622Z,18.40
2017-06-25T22:58:52.050Z,18.40
2017-06-25T23:01:19.224Z,18.40
2017-06-25T23:03:46.404Z,18.40
2017-06-25T23:06:12.962Z,18.40
2017-06-25T23:08:39.407Z,18.40
2017-06-25T23:11:06.588Z,18.40
2017-06-25T23:13:33.030Z,18.40
2017-06-25T23:16:00.200Z,18.40
2017-06-25T23:18:27.500Z,18.40
2017-06-25T23:20:53.954Z,18.40
2017-06-25T23:23:20.382Z,18.40
2017-06-25T23:25:47.901Z,18.50
2017-06-25T23:28:14.338Z,18.40
2017-06-25T23:30:41.525Z,18.50
2017-06-25T23:33:07.954Z,18.50
2017-06-25T23:35:35.251Z,18.50
2017-06-25T23:38:01.687Z,18.50
2017-06-25T23:40:28.871Z,18.50
2017-06-25T23:42:55.323Z,18.50
2017-06-25T23:45:22.500Z,18.50
2017-06-25T23:47:48.955Z,18.50
2017-06-25T23:50:15.377Z,18.50
2017-06-25T23:52:41.800Z,18.50
2017-06-25T23:55:08.263Z,18.50
2017-06-25T23:57:35.318Z,18.50
